createdAt,value
2023-04-18T00:03:33.719Z,18.23
2023-04-18T00:08:16.955Z,18.13
2023-04-18T00:12:42.996Z,18.60
2023-04-18T00:17:08.848Z,17.17
2023-04-18T00:21:34.434Z,18.75
2023-04-18T00:26:04.264Z,18.27
2023-04-18T00:30:34.314Z,18.60
2023-04-18T00:35:12.628Z,24.92
2023-04-18T00:39:38.305Z,19.88
2023-04-18T00:44:11.804Z,20.80
2023-04-18T00:48:36.109Z,22.33
2023-04-18T00:53:00.156Z,26.92
2023-04-18T00:57:26.220Z,27.97
2023-04-18T01:01:50.136Z,25.10
2023-04-18T01:06:14.315Z,29.40
2023-04-18T01:10:38.877Z,29.63
2023-04-18T01:15:04.811Z,28.60
2023-04-18T01:19:28.797Z,31.60
2023-04-18T01:23:53.994Z,30.92
2023-04-18T01:28:21.340Z,31.33
2023-04-18T01:32:46.524Z,30.05
2023-04-18T01:37:10.590Z,33.08
2023-04-18T01:41:34.425Z,32.13
2023-04-18T01:45:59.712Z,29.63
2023-04-18T01:50:25.350Z,31.05
2023-04-18T01:54:49.277Z,28.88
2023-04-18T01:59:13.366Z,26.10
2023-04-18T02:03:39.150Z,27.67
2023-04-18T02:08:03.252Z,30.25
2023-04-18T02:12:27.342Z,29.47
2023-04-18T02:16:51.397Z,25.25
2023-04-18T02:21:17.528Z,27.33
2023-04-18T02:25:41.424Z,25.27
2023-04-18T02:30:07.545Z,27.10
2023-04-18T02:34:32.520Z,28.13
2023-04-18T02:38:58.064Z,30.83
2023-04-18T02:43:21.989Z,27.25
2023-04-18T02:47:54.777Z,28.25
2023-04-18T02:52:20.400Z,25.53
2023-04-18T02:56:45.651Z,20.13
2023-04-18T03:01:19.401Z,26.15
2023-04-18T03:05:52.030Z,27.25
2023-04-18T03:10:16.797Z,26.00
2023-04-18T03:14:41.901Z,25.77
2023-04-18T03:19:05.837Z,28.17
2023-04-18T03:23:30.893Z,22.87
2023-04-18T03:27:56.375Z,24.90
2023-04-18T03:32:24.373Z,25.95
2023-04-18T03:36:48.525Z,25.57
2023-04-18T03:41:13.854Z,24.85
2023-04-18T03:45:39.204Z,24.30
2023-04-18T03:50:08.505Z,21.85
2023-04-18T03:54:32.466Z,23.17
2023-04-18T03:58:56.358Z,21.13
2023-04-18T04:03:21.056Z,23.27
2023-04-18T04:07:46.754Z,22.77
2023-04-18T04:12:10.944Z,24.40
2023-04-18T04:16:35.086Z,20.23
2023-04-18T04:21:01.427Z,22.17
2023-04-18T04:25:38.759Z,24.80
2023-04-18T04:30:13.222Z,22.75
2023-04-18T04:34:37.877Z,22.83
2023-04-18T04:39:05.359Z,22.80
2023-04-18T04:43:41.319Z,21.38
2023-04-18T04:48:07.125Z,22.40
2023-04-18T04:52:33.264Z,24.63
2023-04-18T04:56:57.622Z,22.45
2023-04-18T05:01:24.591Z,19.50
2023-04-18T05:05:49.199Z,19.50
2023-04-18T05:10:13.077Z,20.05
2023-04-18T05:14:37.067Z,22.85
2023-04-18T05:19:02.607Z,20.88
2023-04-18T05:23:26.901Z,18.13
2023-04-18T05:27:52.033Z,17.92
2023-04-18T05:32:16.051Z,19.13
2023-04-18T05:36:41.332Z,19.30
2023-04-18T05:41:05.193Z,17.75
2023-04-18T05:45:29.129Z,18.55
2023-04-18T05:49:52.977Z,19.47
2023-04-18T05:54:18.212Z,16.42
2023-04-18T05:58:42.163Z,16.20
2023-04-18T06:03:08.545Z,16.40
2023-04-18T06:07:36.186Z,15.13
2023-04-18T06:12:01.516Z,17.05
2023-04-18T06:16:25.486Z,15.57
2023-04-18T06:20:49.788Z,16.50
2023-04-18T06:25:13.818Z,18.75
2023-04-18T06:29:39.396Z,18.13
2023-04-18T06:34:03.563Z,17.63
2023-04-18T06:38:27.443Z,14.27
2023-04-18T06:42:51.580Z,17.40
2023-04-18T06:47:17.388Z,14.82
2023-04-18T06:51:41.389Z,15.73
2023-04-18T06:56:05.697Z,17.20
2023-04-18T07:00:29.973Z,17.45
2023-04-18T07:04:55.442Z,15.60
2023-04-18T07:09:21.050Z,17.00
2023-04-18T07:13:45.546Z,18.55
2023-04-18T07:18:09.438Z,15.13
2023-04-18T07:22:34.927Z,17.63
2023-04-18T07:26:58.882Z,14.43
2023-04-18T07:31:22.988Z,14.52
2023-04-18T07:35:46.986Z,14.67
2023-04-18T07:40:13.290Z,15.18
2023-04-18T07:44:37.452Z,16.02
2023-04-18T07:49:02.326Z,14.50
2023-04-18T07:53:26.376Z,14.13
2023-04-18T07:57:51.774Z,15.23
2023-04-18T08:02:16.356Z,14.67
2023-04-18T08:06:40.366Z,15.23
2023-04-18T08:11:04.291Z,14.95
2023-04-18T08:15:32.230Z,14.50
2023-04-18T08:19:56.156Z,12.30
2023-04-18T08:24:20.163Z,14.30
2023-04-18T08:28:46.320Z,14.00
2023-04-18T08:33:11.967Z,15.13
2023-04-18T08:37:36.288Z,12.65
2023-04-18T08:42:01.795Z,14.55
2023-04-18T08:46:26.238Z,14.37
2023-04-18T08:50:57.301Z,15.68
2023-04-18T08:55:24.578Z,15.10
2023-04-18T08:59:51.103Z,15.52
2023-04-18T09:04:34.371Z,14.27
2023-04-18T09:09:00.301Z,13.57
2023-04-18T09:13:40.268Z,15.32
2023-04-18T09:18:10.641Z,15.27
2023-04-18T09:22:50.290Z,15.73
2023-04-18T09:27:15.550Z,15.88
2023-04-18T09:31:57.357Z,14.90
2023-04-18T09:36:22.911Z,15.40
2023-04-18T09:40:47.098Z,16.20
2023-04-18T09:45:13.512Z,14.38
2023-04-18T09:49:37.377Z,16.80
2023-04-18T09:54:02.421Z,16.17
2023-04-18T09:58:27.028Z,15.48
2023-04-18T10:02:57.562Z,14.63
2023-04-18T10:07:22.678Z,14.98
2023-04-18T10:11:46.743Z,18.13
2023-04-18T10:16:11.172Z,17.00
2023-04-18T10:20:36.896Z,17.67
2023-04-18T10:25:00.998Z,14.40
2023-04-18T10:29:49.744Z,17.00
2023-04-18T10:34:17.507Z,15.13
2023-04-18T10:38:47.306Z,16.20
2023-04-18T10:43:13.351Z,15.55
2023-04-18T10:47:37.413Z,14.23
2023-04-18T10:52:03.568Z,15.48
2023-04-18T10:56:29.889Z,16.40
2023-04-18T11:00:54.716Z,18.40
2023-04-18T11:05:23.662Z,16.08
2023-04-18T11:09:57.749Z,15.48
2023-04-18T11:14:23.153Z,15.57
2023-04-18T11:18:47.082Z,14.90
2023-04-18T11:23:18.425Z,15.90
2023-04-18T11:27:43.982Z,15.90
2023-04-18T11:32:10.273Z,17.17
2023-04-18T11:36:38.819Z,16.30
2023-04-18T11:41:04.085Z,16.55
2023-04-18T11:45:32.287Z,17.40
2023-04-18T11:50:02.753Z,16.60
2023-04-18T11:54:41.175Z,16.55
2023-04-18T11:59:13.748Z,16.48
2023-04-18T12:03:41.187Z,18.53
2023-04-18T12:08:15.631Z,16.42
2023-04-18T12:12:51.094Z,18.67
2023-04-18T12:17:21.194Z,17.53
2023-04-18T12:22:01.425Z,17.88
2023-04-18T12:26:23.741Z,18.67
2023-04-18T12:30:48.013Z,18.93
2023-04-18T12:35:14.094Z,19.52
2023-04-18T12:39:41.101Z,17.42
2023-04-18T12:44:10.080Z,16.75
2023-04-18T12:48:45.029Z,17.10
2023-04-18T12:53:12.104Z,18.25
2023-04-18T12:57:36.433Z,18.55
2023-04-18T13:02:01.838Z,17.93
2023-04-18T13:06:28.889Z,19.98
2023-04-18T13:10:57.521Z,19.65
2023-04-18T13:15:24.916Z,17.00
2023-04-18T13:19:51.193Z,20.08
2023-04-18T13:24:32.275Z,18.15
2023-04-18T13:28:56.491Z,19.63
2023-04-18T13:33:33.808Z,16.13
2023-04-18T13:37:59.521Z,17.27
2023-04-18T13:42:37.512Z,18.90
2023-04-18T13:47:03.638Z,17.93
2023-04-18T13:51:27.853Z,16.90
2023-04-18T13:56:03.638Z,19.63
2023-04-18T14:00:27.901Z,18.70
2023-04-18T14:04:52.371Z,19.60
2023-04-18T14:09:17.124Z,17.23
2023-04-18T14:13:42.439Z,19.73
2023-04-18T14:18:06.570Z,25.07
2023-04-18T14:22:30.790Z,18.33
2023-04-18T14:26:54.895Z,19.85
2023-04-18T14:31:24.857Z,19.47
2023-04-18T14:35:52.988Z,19.20
2023-04-18T14:40:20.401Z,17.60
2023-04-18T14:44:44.614Z,19.63
2023-04-18T14:49:10.114Z,18.10
2023-04-18T14:53:39.474Z,16.48
2023-04-18T14:58:05.183Z,17.42
2023-04-18T15:02:33.597Z,17.57
2023-04-18T15:07:00.163Z,18.67
2023-04-18T15:11:27.135Z,18.77
2023-04-18T15:15:53.262Z,19.27
2023-04-18T15:20:22.529Z,20.45
2023-04-18T15:24:49.337Z,19.55
2023-04-18T15:29:13.257Z,21.53
2023-04-18T15:33:37.176Z,22.40
2023-04-18T15:38:01.176Z,20.08
2023-04-18T15:42:26.692Z,19.55
2023-04-18T15:46:51.017Z,20.03
2023-04-18T15:51:15.187Z,21.60
2023-04-18T15:55:39.190Z,22.58
2023-04-18T16:00:10.160Z,21.80
2023-04-18T16:04:34.757Z,19.35
2023-04-18T16:08:58.780Z,21.35
2023-04-18T16:13:22.776Z,21.67
2023-04-18T16:17:48.641Z,19.75
2023-04-18T16:22:12.633Z,21.00
2023-04-18T16:26:36.426Z,21.10
2023-04-18T16:31:00.352Z,19.23
2023-04-18T16:35:26.607Z,20.13
2023-04-18T16:39:51.152Z,18.55
2023-04-18T16:44:15.168Z,20.67
2023-04-18T16:48:39.421Z,21.00
2023-04-18T16:53:08.015Z,20.27
2023-04-18T16:57:31.937Z,20.77
2023-04-18T17:01:58.508Z,17.83
2023-04-18T17:06:24.937Z,20.80
2023-04-18T17:10:52.893Z,19.67
2023-04-18T17:15:19.729Z,19.40
2023-04-18T17:19:43.752Z,20.13
2023-04-18T17:24:08.150Z,19.33
2023-04-18T17:28:33.256Z,19.37
2023-04-18T17:32:57.548Z,20.30
2023-04-18T17:37:24.207Z,20.30
2023-04-18T17:41:48.236Z,19.93
2023-04-18T17:46:14.224Z,20.58
2023-04-18T17:50:38.562Z,18.63
2023-04-18T17:55:02.630Z,19.02
2023-04-18T17:59:27.893Z,19.37
2023-04-18T18:03:54.106Z,19.88
2023-04-18T18:08:18.350Z,18.67
2023-04-18T18:12:38.223Z,18.20
2023-04-18T18:16:57.842Z,17.65
2023-04-18T18:21:17.078Z,17.83
2023-04-18T18:25:41.646Z,18.63
2023-04-18T18:30:06.781Z,16.95
2023-04-18T18:34:31.972Z,18.50
2023-04-18T18:38:57.411Z,16.83
2023-04-18T18:43:22.814Z,17.27
2023-04-18T18:47:46.795Z,18.00
2023-04-18T18:52:13.497Z,18.27
2023-04-18T18:56:40.134Z,17.60
2023-04-18T19:01:05.922Z,18.83
2023-04-18T19:05:29.975Z,19.42
2023-04-18T19:09:57.754Z,19.27
2023-04-18T19:14:23.336Z,18.17
2023-04-18T19:18:49.162Z,19.73
2023-04-18T19:23:13.216Z,16.75
2023-04-18T19:27:37.412Z,18.27
2023-04-18T19:32:04.262Z,19.48
2023-04-18T19:36:28.344Z,20.67
2023-04-18T19:40:52.425Z,19.03
2023-04-18T19:45:16.305Z,20.60
2023-04-18T19:49:42.234Z,17.05
2023-04-18T19:54:09.602Z,21.10
2023-04-18T19:58:38.743Z,17.73
2023-04-18T20:03:03.182Z,17.10
2023-04-18T20:07:28.584Z,19.30
2023-04-18T20:11:54.324Z,17.67
2023-04-18T20:16:18.182Z,18.80
2023-04-18T20:20:42.433Z,20.13
2023-04-18T20:25:08.941Z,22.30
2023-04-18T20:29:33.007Z,20.58
2023-04-18T20:33:57.078Z,20.98
2023-04-18T20:38:26.022Z,18.80
2023-04-18T20:42:54.483Z,19.98
2023-04-18T20:47:18.747Z,20.25
2023-04-18T20:51:42.889Z,20.65
2023-04-18T20:56:07.656Z,20.40
2023-04-18T21:00:33.416Z,18.45
2023-04-18T21:04:59.635Z,18.90
2023-04-18T21:09:24.346Z,19.70
2023-04-18T21:13:48.204Z,17.33
2023-04-18T21:18:13.481Z,16.58
2023-04-18T21:22:39.229Z,17.33
2023-04-18T21:27:05.472Z,14.75
2023-04-18T21:31:31.675Z,16.50
2023-04-18T21:35:57.111Z,14.73
2023-04-18T21:40:21.287Z,16.73
2023-04-18T21:44:45.303Z,15.15
2023-04-18T21:49:09.544Z,13.57
2023-04-18T21:53:35.099Z,13.37
2023-04-18T21:57:59.024Z,13.10
2023-04-18T22:02:22.969Z,11.93
2023-04-18T22:06:47.062Z,10.27
2023-04-18T22:11:13.658Z,10.88
2023-04-18T22:15:39.432Z,10.93
2023-04-18T22:20:04.696Z,9.27
2023-04-18T22:24:28.666Z,11.07
2023-04-18T22:28:53.936Z,9.13
2023-04-18T22:33:20.440Z,8.77
2023-04-18T22:37:44.360Z,10.23
2023-04-18T22:42:08.560Z,8.60
2023-04-18T22:46:34.030Z,9.25
2023-04-18T22:51:01.772Z,10.17
2023-04-18T22:55:26.044Z,9.90
2023-04-18T22:59:49.993Z,8.98
2023-04-18T23:04:15.630Z,10.13
2023-04-18T23:08:40.684Z,10.60
2023-04-18T23:13:04.772Z,9.60
2023-04-18T23:17:29.132Z,7.82
2023-04-18T23:21:54.446Z,9.27
2023-04-18T23:26:18.418Z,9.68
2023-04-18T23:30:42.675Z,9.38
2023-04-18T23:35:06.875Z,10.80
2023-04-18T23:39:32.312Z,9.73
2023-04-18T23:43:54.793Z,9.55
2023-04-18T23:48:18.979Z,9.90
2023-04-18T23:52:43.067Z,10.33
2023-04-18T23:57:08.896Z,9.02
